Time;durP1;ratioP1;P1;durP2;ratioP2;P2;SDS_P1;SDS_P2;PMS_P1;PMS_P2;Temp;Humidity;BMP_temperature;BMP_pressure;BME280_temperature;BME280_humidity;BME280_pressure;Samples;Min_cycle;Max_cycle;Signal;HPM_P1;HPM_P2
2024/02/08 00:01:35;;;;;;;0.63;0.63;;;12.00;99.90;;;;;;5042845;28;20256;-53
2024/02/08 00:04:01;;;;;;;1.13;0.87;;;12.00;99.90;;;;;;5046066;28;20206;-52
2024/02/08 00:06:31;;;;;;;1.97;0.90;;;11.90;99.90;;;;;;5045983;28;20252;-52
2024/02/08 00:09:00;;;;;;;1.33;0.90;;;12.00;99.90;;;;;;5034029;28;20668;-52
2024/02/08 00:11:28;;;;;;;1.20;0.73;;;12.00;99.90;;;;;;5042024;28;20252;-53
2024/02/08 00:13:55;;;;;;;1.47;0.70;;;12.00;99.90;;;;;;5045311;28;20581;-53
2024/02/08 00:16:21;;;;;;;2.20;1.10;;;12.10;99.90;;;;;;5045708;28;20289;-53
2024/02/08 00:18:48;;;;;;;0.80;0.60;;;12.00;99.90;;;;;;5043013;28;20714;-53
2024/02/08 00:21:15;;;;;;;2.50;0.80;;;11.90;99.90;;;;;;5042246;28;20664;-52
2024/02/08 00:23:43;;;;;;;0.77;0.60;;;12.00;99.90;;;;;;5043250;28;20238;-54
2024/02/08 00:26:09;;;;;;;1.27;0.70;;;12.10;99.90;;;;;;5045722;28;20206;-53
2024/02/08 00:28:39;;;;;;;1.33;0.90;;;12.10;99.90;;;;;;5044654;28;20715;-52
2024/02/08 00:31:06;;;;;;;1.23;0.60;;;12.20;99.90;;;;;;5042049;28;20203;-54
2024/02/08 00:33:33;;;;;;;1.93;0.80;;;12.10;99.90;;;;;;5042309;28;20568;-53
2024/02/08 00:36:00;;;;;;;0.83;0.57;;;12.10;99.90;;;;;;5034027;28;20293;-54
2024/02/08 00:38:28;;;;;;;0.80;0.47;;;12.10;99.90;;;;;;5041768;28;20309;-53
2024/02/08 00:40:55;;;;;;;0.87;0.67;;;12.10;99.90;;;;;;5044557;28;20244;-52
2024/02/08 00:43:21;;;;;;;1.60;0.70;;;12.10;99.90;;;;;;5045334;28;20198;-53
2024/02/08 00:45:50;;;;;;;1.07;0.63;;;12.20;99.90;;;;;;5042980;28;20214;-53
2024/02/08 00:48:16;;;;;;;1.50;0.50;;;12.20;99.90;;;;;;5041410;28;20237;-53
2024/02/08 00:50:43;;;;;;;0.60;0.47;;;12.20;99.90;;;;;;5043033;28;20206;-53
2024/02/08 00:53:10;;;;;;;0.67;0.50;;;12.20;99.90;;;;;;5045161;28;20198;-53
2024/02/08 00:55:36;;;;;;;1.40;0.50;;;12.10;99.90;;;;;;5044610;28;20675;-54
2024/02/08 00:58:03;;;;;;;0.43;0.43;;;12.20;99.90;;;;;;5041270;28;20222;-53
2024/02/08 01:00:37;;;;;;;0.50;0.47;;;12.20;99.90;;;;;;5041459;28;20635;-53
2024/02/08 01:03:05;;;;;;;0.70;0.50;;;12.20;99.90;;;;;;5033990;28;20199;-54
2024/02/08 01:05:32;;;;;;;0.43;0.43;;;12.20;99.90;;;;;;5049458;28;20206;-53
2024/02/08 01:08:00;;;;;;;0.30;0.30;;;12.20;99.90;;;;;;5041004;28;20730;-53
2024/02/08 01:10:26;;;;;;;1.07;0.40;;;12.30;99.90;;;;;;5041347;28;20730;-53
2024/02/08 01:12:54;;;;;;;1.40;0.27;;;12.30;99.90;;;;;;5043590;28;20257;-54
2024/02/08 01:15:21;;;;;;;0.63;0.40;;;12.40;99.90;;;;;;5044809;28;20212;-53
2024/02/08 01:17:51;;;;;;;0.60;0.40;;;12.40;99.90;;;;;;5042862;28;20370;-52
2024/02/08 01:20:22;;;;;;;0.77;0.47;;;12.40;99.90;;;;;;5041684;28;20224;-52
2024/02/08 01:22:50;;;;;;;0.47;0.40;;;12.30;99.90;;;;;;5042504;28;20238;-53
2024/02/08 01:25:16;;;;;;;0.90;0.53;;;12.30;99.90;;;;;;5044746;28;20198;-53
2024/02/08 01:27:44;;;;;;;0.97;0.57;;;12.30;99.90;;;;;;5043568;28;20248;-53
2024/02/08 01:30:13;;;;;;;0.57;0.57;;;12.30;99.90;;;;;;5041042;28;20281;-52
2024/02/08 01:32:40;;;;;;;1.30;0.50;;;12.30;99.90;;;;;;5041420;28;20206;-53
2024/02/08 01:35:07;;;;;;;0.40;0.40;;;12.20;99.90;;;;;;5044411;28;20197;-52
2024/02/08 01:37:38;;;;;;;0.57;0.50;;;12.30;99.90;;;;;;5044067;28;20249;-54
2024/02/08 01:40:06;;;;;;;0.60;0.40;;;12.30;99.90;;;;;;5033078;28;20214;-52
2024/02/08 01:42:37;;;;;;;0.37;0.37;;;12.30;99.90;;;;;;5040754;28;20214;-53
2024/02/08 01:45:30;;;;;;;0.77;0.50;;;12.30;99.90;;;;;;5033241;28;20566;-52
2024/02/08 01:47:58;;;;;;;0.57;0.40;;;12.40;99.90;;;;;;5043301;28;20775;-52
2024/02/08 01:50:25;;;;;;;0.33;0.33;;;12.40;99.90;;;;;;5044695;28;20668;-52
2024/02/08 01:52:54;;;;;;;0.40;0.30;;;12.40;99.90;;;;;;5042408;28;20206;-52
2024/02/08 01:55:21;;;;;;;0.63;0.40;;;12.30;99.90;;;;;;5040641;28;20229;-51
2024/02/08 01:57:49;;;;;;;0.47;0.30;;;12.30;99.90;;;;;;5041736;28;20320;-52
2024/02/08 02:00:16;;;;;;;1.30;0.40;;;12.30;99.90;;;;;;5043823;28;20221;-54
2024/02/08 02:02:53;;;;;;;1.13;0.50;;;12.30;99.90;;;;;;5042646;28;20209;-53
2024/02/08 02:05:21;;;;;;;0.73;0.50;;;12.30;99.90;;;;;;5040512;28;20202;-53
2024/02/08 02:07:48;;;;;;;1.00;0.60;;;12.30;99.90;;;;;;5041652;28;20711;-54
2024/02/08 02:10:17;;;;;;;0.80;0.80;;;12.40;99.90;;;;;;5043847;28;20229;-53
2024/02/08 02:12:47;;;;;;;0.50;0.37;;;12.40;99.90;;;;;;5042559;28;20212;-52
2024/02/08 02:15:15;;;;;;;0.40;0.40;;;12.50;99.90;;;;;;5040096;28;20272;-53
2024/02/08 02:17:44;;;;;;;0.60;0.40;;;12.60;99.90;;;;;;5040854;28;20252;-53
2024/02/08 02:20:18;;;;;;;0.60;0.40;;;12.60;99.90;;;;;;5043396;28;20628;-52
2024/02/08 02:22:47;;;;;;;0.70;0.50;;;12.60;99.90;;;;;;5042476;28;20202;-53
2024/02/08 02:25:14;;;;;;;0.50;0.30;;;12.60;99.90;;;;;;5040211;28;20252;-52
2024/02/08 02:27:42;;;;;;;0.80;0.40;;;12.60;99.90;;;;;;5040247;28;20233;-52
2024/02/08 02:30:15;;;;;;;1.13;0.43;;;12.50;99.90;;;;;;5043521;28;20269;-53
2024/02/08 02:32:45;;;;;;;0.53;0.40;;;12.50;99.90;;;;;;5042418;28;20212;-54
2024/02/08 02:35:16;;;;;;;0.80;0.40;;;12.50;99.90;;;;;;5040166;28;20230;-52
2024/02/08 02:37:44;;;;;;;1.30;0.67;;;12.60;99.90;;;;;;5040539;28;20233;-53
2024/02/08 02:40:21;;;;;;;0.57;0.43;;;12.50;99.90;;;;;;5042905;28;20578;-53
2024/02/08 02:42:48;;;;;;;0.70;0.70;;;12.50;99.90;;;;;;5041738;28;20624;-53
2024/02/08 02:45:21;;;;;;;1.80;0.50;;;12.50;99.90;;;;;;5040112;28;20198;-53
2024/02/08 02:47:49;;;;;;;0.90;0.30;;;12.60;99.90;;;;;;5041059;28;20723;-53
2024/02/08 02:50:17;;;;;;;0.40;0.40;;;12.60;99.90;;;;;;5043198;28;20201;-53
2024/02/08 02:52:43;;;;;;;1.10;0.50;;;12.50;99.90;;;;;;5042121;28;20205;-53
2024/02/08 02:55:12;;;;;;;0.57;0.30;;;12.60;99.90;;;;;;5040114;28;20257;-53
2024/02/08 02:57:38;;;;;;;1.80;0.60;;;12.60;99.90;;;;;;5039586;28;20757;-54
2024/02/08 03:00:15;;;;;;;1.17;0.43;;;12.60;99.90;;;;;;5042741;28;20217;-53
2024/02/08 03:02:42;;;;;;;1.27;0.67;;;12.60;99.90;;;;;;5042660;28;20205;-53
2024/02/08 03:05:09;;;;;;;0.57;0.40;;;12.60;99.90;;;;;;5039648;28;20593;-54
2024/02/08 03:07:41;;;;;;;0.60;0.47;;;12.60;99.90;;;;;;5039778;28;20233;-54
2024/02/08 03:10:11;;;;;;;0.50;0.50;;;12.60;99.90;;;;;;5031904;28;20668;-53
2024/02/08 03:12:40;;;;;;;0.40;0.40;;;12.60;99.90;;;;;;5039564;28;20252;-53
2024/02/08 03:15:09;;;;;;;0.40;0.40;;;12.60;99.90;;;;;;5039546;28;20206;-53
2024/02/08 03:17:36;;;;;;;0.90;0.60;;;12.60;99.90;;;;;;5039344;28;20590;-54
2024/02/08 03:20:06;;;;;;;0.90;0.47;;;12.60;99.90;;;;;;5031372;28;20246;-53
2024/02/08 03:22:34;;;;;;;0.53;0.40;;;12.50;99.90;;;;;;5039623;28;20210;-51
2024/02/08 03:25:04;;;;;;;2.37;0.40;;;12.60;99.90;;;;;;5042592;28;20205;-54
2024/02/08 03:27:33;;;;;;;1.30;0.50;;;12.60;99.90;;;;;;5043526;28;20225;-51
2024/02/08 03:30:04;;;;;;;0.30;0.30;;;12.60;99.90;;;;;;5039575;28;20203;-52
2024/02/08 03:32:31;;;;;;;0.30;0.30;;;12.60;99.90;;;;;;5039632;28;20217;-51
2024/02/08 03:34:59;;;;;;;0.80;0.40;;;12.60;99.90;;;;;;5042003;28;20570;-52
2024/02/08 03:37:26;;;;;;;0.70;0.50;;;12.60;99.90;;;;;;5042849;28;20228;-54
2024/02/08 03:39:52;;;;;;;0.33;0.33;;;12.60;99.90;;;;;;5040521;28;20673;-53
2024/02/08 03:42:19;;;;;;;1.57;0.40;;;12.60;99.90;;;;;;5039387;28;20214;-51
2024/02/08 03:44:46;;;;;;;0.30;0.27;;;12.60;99.90;;;;;;5040619;28;20221;-54
2024/02/08 03:47:14;;;;;;;0.50;0.30;;;12.50;99.90;;;;;;5069125;22;20213;-57
2024/02/08 03:49:51;;;;;;;2.10;0.40;;;12.50;99.90;;;;;;5062622;28;20752;-56
2024/02/08 03:52:18;;;;;;;0.30;0.20;;;12.50;99.90;;;;;;5066514;28;20211;-57
2024/02/08 03:54:46;;;;;;;1.80;0.40;;;12.60;99.90;;;;;;5065471;28;20291;-58
2024/02/08 03:57:13;;;;;;;0.70;0.40;;;12.60;99.90;;;;;;5062586;28;20714;-57
2024/02/08 03:59:42;;;;;;;0.20;0.20;;;12.60;99.90;;;;;;5062335;28;20701;-59
2024/02/08 04:02:09;;;;;;;0.40;0.30;;;12.70;99.90;;;;;;5066243;28;20229;-57
2024/02/08 04:04:50;;;;;;;0.20;0.13;;;12.70;99.90;;;;;;5066170;28;20205;-58
2024/02/08 04:07:22;;;;;;;0.73;0.30;;;12.60;99.90;;;;;;5056001;28;20279;-57
2024/02/08 04:09:55;;;;;;;0.53;0.30;;;12.70;99.90;;;;;;5063069;28;20220;-57
2024/02/08 04:53:34;;;;;;;1.70;0.67;;;12.60;99.90;;;;;;5061809;28;20212;-58
2024/02/08 04:56:07;;;;;;;0.97;0.40;;;12.50;99.90;;;;;;5064119;28;20227;-58
2024/02/08 04:58:33;;;;;;;1.50;0.60;;;12.50;99.90;;;;;;5064959;28;20282;-58
2024/02/08 05:01:01;;;;;;;0.60;0.30;;;12.50;99.90;;;;;;5062587;28;20221;-58
2024/02/08 05:03:28;;;;;;;0.40;0.40;;;12.50;99.90;;;;;;5061539;28;20208;-58
2024/02/08 05:05:55;;;;;;;0.87;0.67;;;12.60;99.90;;;;;;5062914;28;20205;-58
2024/02/08 05:08:24;;;;;;;1.00;0.60;;;12.50;99.90;;;;;;5064624;28;20259;-58
2024/02/08 05:10:52;;;;;;;0.87;0.40;;;12.60;99.90;;;;;;5063635;28;20251;-58
2024/02/08 05:13:24;;;;;;;0.63;0.50;;;12.60;99.90;;;;;;5061390;28;20592;-58
2024/02/08 05:15:51;;;;;;;0.70;0.40;;;12.60;99.90;;;;;;5062319;28;20210;-58
2024/02/08 05:18:21;;;;;;;1.87;0.50;;;12.60;99.90;;;;;;5064120;28;20224;-58
2024/02/08 05:20:49;;;;;;;0.67;0.50;;;12.60;99.90;;;;;;5063894;28;20224;-58
2024/02/08 05:23:15;;;;;;;4.27;0.73;;;12.60;99.90;;;;;;5061180;28;20201;-58
2024/02/08 05:25:44;;;;;;;1.63;0.60;;;12.60;99.90;;;;;;5061098;28;20206;-57
2024/02/08 05:28:12;;;;;;;1.27;0.90;;;12.60;99.90;;;;;;5064071;28;20606;-58
2024/02/08 05:30:39;;;;;;;1.20;0.80;;;12.60;99.90;;;;;;5064218;28;20633;-58
2024/02/08 05:33:05;;;;;;;0.83;0.60;;;12.60;99.90;;;;;;5060887;28;20197;-58
2024/02/08 05:35:32;;;;;;;2.83;1.00;;;12.60;99.90;;;;;;5060947;28;20217;-58
2024/02/08 05:38:00;;;;;;;0.77;0.50;;;12.60;99.90;;;;;;5062471;28;20752;-58
2024/02/08 05:40:30;;;;;;;2.03;1.30;;;12.60;99.90;;;;;;5064135;28;20286;-58
2024/02/08 05:42:56;;;;;;;1.00;0.57;;;12.60;99.90;;;;;;5062073;28;20299;-58
2024/02/08 05:45:30;;;;;;;2.83;0.73;;;12.60;99.90;;;;;;5060536;28;20202;-57
2024/02/08 05:48:00;;;;;;;0.97;0.60;;;12.60;99.90;;;;;;5062045;28;20244;-57
2024/02/08 05:50:27;;;;;;;7.90;4.80;;;12.60;99.90;;;;;;5064248;28;20731;-57
2024/02/08 05:52:57;;;;;;;1.03;0.90;;;12.60;99.90;;;;;;5062388;28;20209;-58
2024/02/08 05:55:24;;;;;;;2.67;1.20;;;12.60;99.90;;;;;;5060545;28;20251;-58
2024/02/08 05:57:53;;;;;;;1.63;0.70;;;12.50;99.90;;;;;;5061025;28;20766;-57
2024/02/08 06:00:32;;;;;;;0.87;0.63;;;12.40;99.90;;;;;;5063533;28;20278;-58
2024/02/08 06:03:02;;;;;;;1.57;0.90;;;12.40;99.90;;;;;;5061867;28;20213;-58
2024/02/08 06:05:31;;;;;;;1.60;1.00;;;12.40;99.90;;;;;;5060350;28;20265;-58
2024/02/08 06:07:57;;;;;;;1.57;1.00;;;12.40;99.90;;;;;;5061097;28;20228;-58
2024/02/08 06:10:41;;;;;;;4.70;1.20;;;12.40;99.90;;;;;;5063585;28;20254;-58
2024/02/08 06:13:13;;;;;;;1.20;0.90;;;12.40;99.90;;;;;;5060430;28;20271;-58
2024/02/08 06:15:42;;;;;;;0.90;0.60;;;12.40;99.90;;;;;;5060075;28;20225;-57
2024/02/08 06:18:14;;;;;;;1.63;0.70;;;12.50;99.90;;;;;;5063206;28;20263;-57
2024/02/08 06:20:43;;;;;;;1.37;0.90;;;12.40;99.90;;;;;;5063343;28;20221;-57
2024/02/08 06:23:23;;;;;;;1.33;0.93;;;12.40;99.90;;;;;;5059672;28;20202;-57
2024/02/08 06:26:27;;;;;;;2.73;1.57;;;12.40;99.90;;;;;;5060625;28;20216;-58
2024/02/08 06:28:48;;;;;;;1.17;0.50;;;12.40;99.90;;;;;;5062260;28;20311;-58
2024/02/08 06:31:17;;;;;;;0.77;0.53;;;12.30;99.90;;;;;;5059754;28;20672;-58
2024/02/08 06:34:09;;;;;;;0.87;0.50;;;12.30;99.90;;;;;;5060067;28;20201;-57
2024/02/08 06:36:42;;;;;;;1.47;0.90;;;12.40;99.90;;;;;;5055439;28;20212;-57
2024/02/08 06:39:20;;;;;;;1.50;0.63;;;12.30;99.90;;;;;;5062735;28;20220;-57
2024/02/08 06:41:52;;;;;;;0.43;0.40;;;12.40;99.90;;;;;;5062706;28;20231;-57
2024/02/08 07:39:34;;;;;;;0.90;0.60;;;12.30;99.90;;;;;;5056128;28;20212;-58
2024/02/08 07:42:12;;;;;;;2.13;0.80;;;12.40;99.90;;;;;;5064836;28;20233;-59
2024/02/08 07:44:45;;;;;;;2.57;1.83;;;12.40;99.90;;;;;;5066527;28;20313;-59
2024/02/08 07:47:12;;;;;;;2.10;1.20;;;12.40;99.90;;;;;;5062949;28;20201;-59
2024/02/08 07:49:49;;;;;;;2.73;1.10;;;12.30;99.90;;;;;;5062694;28;20285;-59
2024/02/08 07:52:19;;;;;;;0.50;0.50;;;12.40;99.90;;;;;;5066253;28;20196;-59
2024/02/08 07:54:50;;;;;;;0.60;0.60;;;12.40;99.90;;;;;;5066007;28;20205;-58
2024/02/08 07:57:24;;;;;;;1.87;0.90;;;12.40;99.90;;;;;;5055119;28;20241;-58
2024/02/08 07:59:52;;;;;;;5.17;2.07;;;12.50;99.90;;;;;;5062848;28;20307;-59
2024/02/08 08:02:23;;;;;;;2.93;1.00;;;12.60;99.90;;;;;;5066072;28;20216;-58
2024/02/08 08:04:53;;;;;;;0.97;0.63;;;12.50;99.90;;;;;;5065317;28;20235;-58
2024/02/08 08:07:23;;;;;;;2.10;0.80;;;12.60;99.90;;;;;;5062321;28;20267;-58
2024/02/08 08:09:59;;;;;;;2.07;1.00;;;12.60;99.90;;;;;;5062462;28;20289;-58
2024/02/08 08:12:29;;;;;;;2.47;0.47;;;12.70;99.90;;;;;;5065816;28;20204;-62
2024/02/08 08:15:13;;;;;;;0.93;0.40;;;12.80;99.90;;;;;;5064606;28;20237;-62
2024/02/08 08:17:40;;;;;;;1.10;0.80;;;12.90;99.90;;;;;;5062235;28;20598;-58
2024/02/08 08:20:15;;;;;;;1.93;0.40;;;12.80;99.90;;;;;;5064845;28;20198;-59
2024/02/08 08:22:54;;;;;;;0.93;0.70;;;12.90;99.90;;;;;;5065717;28;20225;-58
2024/02/08 08:25:59;;;;;;;0.90;0.77;;;13.00;99.90;;;;;;5055060;28;20579;-58
2024/02/08 08:28:40;;;;;;;0.63;0.60;;;13.10;99.90;;;;;;5065219;28;20224;-57
2024/02/08 08:33:59;;;;;;;0.53;0.40;;;13.20;99.90;;;;;;5062781;28;20209;-58
2024/02/08 08:36:28;;;;;;;1.10;0.90;;;13.10;99.90;;;;;;5065109;28;20292;-58
2024/02/08 08:39:29;;;;;;;2.13;0.60;;;13.20;99.90;;;;;;5064039;28;20306;-58
2024/02/08 08:41:47;;;;;;;1.10;0.50;;;13.20;99.90;;;;;;5061636;28;20221;-58
2024/02/08 08:44:15;;;;;;;1.23;0.63;;;13.20;99.90;;;;;;5065229;28;20258;-58
2024/02/08 08:46:42;;;;;;;1.00;0.70;;;13.20;99.90;;;;;;5064810;28;20209;-58
2024/02/08 08:49:14;;;;;;;0.90;0.60;;;13.30;99.90;;;;;;5061588;28;20383;-58
2024/02/08 08:51:42;;;;;;;0.90;0.70;;;13.30;99.90;;;;;;5061626;28;20209;-58
2024/02/08 08:54:18;;;;;;;1.00;0.60;;;13.50;99.90;;;;;;5064544;28;20204;-58
2024/02/08 08:56:49;;;;;;;1.53;0.57;;;13.50;99.90;;;;;;5065133;28;20233;-58
2024/02/08 08:59:19;;;;;;;2.00;0.60;;;13.60;99.90;;;;;;5052971;28;20778;-58
2024/02/08 09:01:48;;;;;;;0.70;0.47;;;13.70;99.90;;;;;;5061334;28;20224;-59
2024/02/08 09:04:25;;;;;;;0.47;0.40;;;13.60;99.90;;;;;;5064785;28;20274;-58
2024/02/08 09:06:52;;;;;;;1.80;0.50;;;13.60;99.90;;;;;;5064387;28;20713;-58
2024/02/08 09:09:38;;;;;;;1.20;0.90;;;13.50;99.90;;;;;;5061090;28;20224;-58
2024/02/08 09:12:07;;;;;;;8.10;3.33;;;13.50;99.90;;;;;;5063402;28;20212;-58
2024/02/08 09:14:34;;;;;;;2.10;1.00;;;13.60;99.90;;;;;;5064735;28;20200;-58
2024/02/08 09:17:02;;;;;;;1.50;0.63;;;13.70;99.90;;;;;;5063023;28;20216;-58
2024/02/08 09:19:31;;;;;;;3.00;0.80;;;13.80;99.90;;;;;;5060882;28;20663;-58
2024/02/08 09:21:59;;;;;;;0.50;0.50;;;14.00;99.90;;;;;;5061977;28;20226;-59
2024/02/08 09:24:26;;;;;;;0.50;0.50;;;14.10;99.90;;;;;;5063979;28;20642;-57
2024/02/08 09:27:01;;;;;;;2.37;0.60;;;14.10;99.90;;;;;;5063851;28;20224;-57
2024/02/08 09:29:38;;;;;;;0.50;0.50;;;14.10;99.90;;;;;;5060851;28;20232;-58
2024/02/08 09:32:15;;;;;;;3.70;1.00;;;14.10;99.90;;;;;;5062728;28;20209;-57
2024/02/08 09:34:41;;;;;;;2.20;0.90;;;14.00;99.90;;;;;;5064281;28;20231;-58
2024/02/08 09:37:08;;;;;;;1.03;0.70;;;14.00;99.90;;;;;;5061766;28;20254;-57
2024/02/08 09:39:53;;;;;;;0.57;0.57;;;14.10;99.90;;;;;;5060727;28;20198;-58
2024/02/08 09:42:26;;;;;;;1.40;0.60;;;14.20;99.90;;;;;;5063192;28;20224;-58
2024/02/08 09:44:59;;;;;;;2.33;0.63;;;14.20;99.90;;;;;;5063661;28;20240;-58
2024/02/08 09:47:31;;;;;;;0.87;0.60;;;14.30;99.90;;;;;;5060742;28;20634;-58
2024/02/08 09:50:01;;;;;;;0.93;0.67;;;14.30;99.90;;;;;;5061468;28;20213;-59
2024/02/08 09:52:30;;;;;;;0.60;0.60;;;14.40;99.90;;;;;;5063988;28;20639;-56
2024/02/08 09:55:06;;;;;;;0.93;0.60;;;14.40;99.90;;;;;;5062879;28;20209;-57
2024/02/08 09:57:45;;;;;;;1.27;0.70;;;14.40;99.90;;;;;;5060245;28;20275;-57
2024/02/08 10:03:03;;;;;;;5.97;5.03;;;14.40;99.90;;;;;;5062657;28;20216;-58
2024/02/08 10:08:27;;;;;;;2.73;2.53;;;14.40;99.90;;;;;;5062664;28;20445;-58
2024/02/08 10:10:56;;;;;;;1.53;0.70;;;14.60;99.90;;;;;;5063376;28;20208;-58
2024/02/08 10:13:30;;;;;;;0.80;0.50;;;14.80;99.90;;;;;;5060290;28;20202;-57
2024/02/08 10:16:03;;;;;;;1.70;0.50;;;14.70;99.90;;;;;;5061061;28;20218;-57
2024/02/08 10:18:33;;;;;;;1.77;1.00;;;14.80;99.90;;;;;;5063215;28;20225;-57
2024/02/08 10:21:12;;;;;;;1.87;1.37;;;14.90;99.90;;;;;;5063643;28;20663;-57
2024/02/08 10:23:48;;;;;;;2.33;1.20;;;15.00;99.90;;;;;;5064080;28;20224;-58
2024/02/08 10:26:22;;;;;;;1.00;0.60;;;15.20;99.90;;;;;;5060826;28;20193;-58
2024/02/08 10:28:53;;;;;;;1.30;0.60;;;15.30;99.90;;;;;;5061133;28;20225;-57
2024/02/08 10:31:25;;;;;;;0.87;0.60;;;15.30;99.90;;;;;;5064587;28;20225;-57
2024/02/08 10:34:02;;;;;;;0.80;0.70;;;15.40;99.90;;;;;;5063765;28;20219;-58
2024/02/08 10:36:35;;;;;;;2.08;1.50;;;15.40;99.90;;;;;;5060397;28;20231;-57
2024/02/08 10:39:08;;;;;;;9.20;5.77;;;15.40;99.90;;;;;;5061369;28;20225;-57
2024/02/08 10:41:38;;;;;;;13.90;11.67;;;15.40;99.90;;;;;;5063532;28;20216;-57
2024/02/08 10:44:06;;;;;;;1.93;1.60;;;15.40;99.90;;;;;;5061612;28;20209;-57
2024/02/08 10:46:42;;;;;;;3.13;1.50;;;15.30;99.90;;;;;;5059906;28;20197;-57
2024/02/08 10:49:10;;;;;;;1.40;1.07;;;15.20;99.90;;;;;;5061295;28;20229;-58
2024/02/08 10:51:43;;;;;;;0.83;0.50;;;15.30;99.90;;;;;;5062783;28;20201;-57
2024/02/08 10:54:14;;;;;;;1.43;0.63;;;15.30;99.90;;;;;;5062354;28;20300;-57
2024/02/08 10:56:44;;;;;;;0.87;0.53;;;15.30;99.90;;;;;;5062388;28;20213;-57
2024/02/08 10:59:14;;;;;;;0.67;0.57;;;15.40;99.90;;;;;;5064312;28;20286;-57
2024/02/08 11:02:01;;;;;;;1.77;0.40;;;15.30;99.90;;;;;;5063424;28;20585;-57
2024/02/08 11:04:28;;;;;;;0.43;0.40;;;15.20;99.90;;;;;;5067207;28;20308;-57
2024/02/08 11:07:06;;;;;;;1.40;0.40;;;15.10;99.90;;;;;;5066803;28;20621;-58
2024/02/08 11:09:34;;;;;;;2.60;0.57;;;15.10;99.90;;;;;;5063750;28;20209;-58
2024/02/08 11:12:06;;;;;;;0.50;0.40;;;15.00;99.90;;;;;;5064773;28;20208;-58
2024/02/08 11:14:40;;;;;;;1.00;0.40;;;14.90;99.90;;;;;;5066866;28;20674;-58
2024/02/08 11:17:20;;;;;;;0.60;0.60;;;14.70;99.90;;;;;;5064936;28;20684;-62
2024/02/08 11:19:49;;;;;;;1.17;0.70;;;14.70;99.90;;;;;;5060419;28;20837;-59
2024/02/08 11:22:34;;;;;;;1.70;0.53;;;14.70;99.90;;;;;;5066228;28;20220;-60
2024/02/08 11:25:18;;;;;;;1.27;0.70;;;14.70;99.90;;;;;;5065268;28;20212;-61
2024/02/08 11:27:47;;;;;;;0.43;0.23;;;14.70;99.90;;;;;;5063145;28;20256;-60
2024/02/08 11:30:19;;;;;;;3.27;2.47;;;14.80;99.90;;;;;;5065697;28;20201;-60
2024/02/08 11:33:01;;;;;;;2.37;1.47;;;14.80;99.90;;;;;;5066353;28;20212;-59
2024/02/08 11:35:31;;;;;;;1.80;0.80;;;14.90;99.90;;;;;;5056359;28;20240;-61
2024/02/08 11:38:11;;;;;;;0.47;0.40;;;15.00;99.90;;;;;;5063370;28;20673;-58
2024/02/08 11:40:39;;;;;;;0.97;0.60;;;15.20;99.90;;;;;;5066344;28;20262;-57
2024/02/08 11:43:06;;;;;;;1.20;0.90;;;15.40;99.90;;;;;;5064561;28;20244;-58
2024/02/08 11:45:35;;;;;;;0.67;0.50;;;15.50;99.90;;;;;;5062889;28;20249;-59
2024/02/08 11:48:04;;;;;;;0.60;0.60;;;15.70;99.90;;;;;;5063206;28;20228;-58
2024/02/08 11:50:36;;;;;;;1.83;1.20;;;15.80;99.90;;;;;;5066011;28;20576;-60
2024/02/08 11:53:04;;;;;;;1.40;0.90;;;16.00;99.90;;;;;;5064924;28;20716;-59
2024/02/08 11:55:32;;;;;;;1.35;0.65;;;16.00;99.90;;;;;;5062478;28;20205;-58
2024/02/08 11:58:03;;;;;;;1.53;0.40;;;15.90;99.90;;;;;;5063034;28;20234;-59
2024/02/08 12:00:30;;;;;;;2.67;0.82;;;15.70;99.90;;;;;;5065359;28;20197;-58
2024/02/08 12:02:57;;;;;;;3.20;0.83;;;15.70;99.90;;;;;;5065624;28;20217;-59
2024/02/08 12:05:26;;;;;;;1.53;0.70;;;15.60;99.90;;;;;;5062054;28;20288;-59
2024/02/08 12:07:57;;;;;;;2.80;0.73;;;15.50;99.90;;;;;;5062191;28;20252;-58
2024/02/08 12:10:25;;;;;;;2.17;1.30;;;15.50;99.90;;;;;;5062599;28;20271;-60
2024/02/08 12:12:53;;;;;;;5.05;0.77;;;15.50;99.90;;;;;;5062775;28;20412;-57
2024/02/08 12:15:21;;;;;;;1.08;0.57;;;15.50;99.90;;;;;;5062449;28;20292;-58
2024/02/08 12:17:52;;;;;;;1.63;0.70;;;15.60;99.90;;;;;;5062285;28;20253;-58
2024/02/08 12:20:19;;;;;;;3.13;1.10;;;15.70;99.90;;;;;;5064983;28;20231;-58
2024/02/08 12:22:55;;;;;;;1.67;0.70;;;15.80;99.90;;;;;;5065436;28;20228;-58
2024/02/08 12:25:21;;;;;;;1.77;0.80;;;15.80;99.90;;;;;;5053880;28;20227;-57
2024/02/08 12:27:52;;;;;;;2.42;0.60;;;15.80;99.90;;;;;;5061866;28;20237;-62
2024/02/08 12:30:24;;;;;;;0.95;0.50;;;15.80;99.90;;;;;;5061700;28;20198;-61
2024/02/08 12:32:52;;;;;;;3.93;1.50;;;15.90;99.90;;;;;;5062294;28;20578;-59
2024/02/08 12:35:21;;;;;;;1.80;0.85;;;16.00;99.90;;;;;;5064965;28;20205;-60
2024/02/08 12:37:49;;;;;;;3.03;0.93;;;16.10;99.90;;;;;;5065193;28;20233;-59
2024/02/08 12:40:18;;;;;;;3.28;1.00;;;16.10;99.90;;;;;;5061881;28;20212;-60
2024/02/08 12:42:46;;;;;;;2.92;1.52;;;16.20;99.90;;;;;;5061960;28;20226;-61
2024/02/08 12:45:17;;;;;;;5.20;1.40;;;16.20;99.90;;;;;;5063909;28;20306;-60
2024/02/08 12:47:49;;;;;;;2.35;0.93;;;16.30;99.90;;;;;;5065272;28;20229;-61
2024/02/08 12:50:17;;;;;;;1.92;0.68;;;16.40;99.90;;;;;;5062241;28;20210;-61
2024/02/08 12:52:44;;;;;;;8.07;4.20;;;16.40;99.90;;;;;;5061513;28;20202;-60
2024/02/08 12:55:13;;;;;;;7.18;1.02;;;16.50;99.90;;;;;;5063321;28;20610;-62
2024/02/08 12:57:41;;;;;;;2.00;1.00;;;16.50;99.90;;;;;;5064524;28;20224;-61
2024/02/08 13:00:12;;;;;;;4.10;0.98;;;16.50;99.90;;;;;;5063290;28;20251;-60
2024/02/08 13:02:39;;;;;;;4.82;1.50;;;16.50;99.90;;;;;;5061681;28;20220;-62
2024/02/08 13:05:07;;;;;;;3.75;1.10;;;16.70;99.90;;;;;;5062371;28;20201;-60
2024/02/08 13:07:36;;;;;;;4.63;1.10;;;16.70;99.90;;;;;;5065127;28;20220;-61
2024/02/08 13:10:04;;;;;;;4.38;1.33;;;16.70;99.90;;;;;;5063375;28;20584;-60
2024/02/08 13:12:31;;;;;;;7.28;1.65;;;16.60;99.90;;;;;;5061149;28;20202;-59
2024/02/08 13:15:05;;;;;;;6.28;1.75;;;16.40;99.90;;;;;;5061221;28;20232;-59
2024/02/08 13:17:34;;;;;;;4.32;1.10;;;16.30;99.90;;;;;;5064823;28;20274;-59
2024/02/08 13:20:11;;;;;;;7.00;1.40;;;16.20;99.90;;;;;;5063659;28;20205;-60
2024/02/08 13:22:38;;;;;;;7.00;1.80;;;16.30;99.90;;;;;;5060711;28;20225;-62
2024/02/08 13:25:12;;;;;;;5.82;1.67;;;16.30;99.90;;;;;;5062095;28;20205;-63
2024/02/08 13:27:39;;;;;;;2.92;1.50;;;16.30;99.90;;;;;;5064440;28;20255;-62
2024/02/08 13:30:14;;;;;;;4.80;1.63;;;16.20;99.90;;;;;;5062371;28;20205;-62
2024/02/08 13:32:42;;;;;;;5.93;1.90;;;16.20;99.90;;;;;;5060763;28;20205;-61
2024/02/08 13:35:09;;;;;;;6.72;1.73;;;16.30;99.90;;;;;;5062226;28;20209;-61
2024/02/08 13:37:37;;;;;;;5.60;1.40;;;16.30;99.90;;;;;;5064216;28;20221;-61
2024/02/08 13:40:04;;;;;;;5.38;1.90;;;16.40;99.90;;;;;;5062825;28;20266;-58
2024/02/08 13:42:31;;;;;;;6.00;1.65;;;16.50;99.90;;;;;;5060371;28;20237;-59
2024/02/08 13:44:59;;;;;;;9.38;1.77;;;16.50;99.90;;;;;;5060640;28;20271;-61
2024/02/08 13:47:27;;;;;;;11.38;2.45;;;16.60;99.90;;;;;;5063667;28;20228;-61
2024/02/08 13:49:54;;;;;;;10.80;2.22;;;16.60;99.90;;;;;;5063841;28;20212;-59
2024/02/08 13:52:21;;;;;;;5.68;2.15;;;16.60;99.90;;;;;;5060976;28;20633;-60
2024/02/08 13:54:49;;;;;;;10.07;2.70;;;16.60;99.90;;;;;;5060495;28;20205;-58
2024/02/08 13:57:17;;;;;;;11.25;2.50;;;16.50;99.90;;;;;;5062537;28;20312;-58
2024/02/08 13:59:46;;;;;;;8.90;2.05;;;16.40;99.90;;;;;;5063417;28;20298;-60
2024/02/08 14:02:15;;;;;;;7.65;2.40;;;16.40;99.90;;;;;;5061569;28;20209;-60
2024/02/08 14:04:49;;;;;;;9.93;3.80;;;16.40;99.90;;;;;;5060997;28;20206;-58
2024/02/08 14:07:17;;;;;;;9.90;2.92;;;16.40;99.90;;;;;;5063223;28;20228;-57
2024/02/08 14:09:45;;;;;;;6.18;1.90;;;16.30;99.90;;;;;;5063293;28;20205;-61
2024/02/08 14:12:12;;;;;;;9.05;2.20;;;16.20;99.90;;;;;;5061776;28;20211;-59
2024/02/08 14:14:41;;;;;;;6.53;2.42;;;16.10;99.90;;;;;;5060450;28;20202;-59
2024/02/08 14:17:10;;;;;;;7.75;2.38;;;16.10;99.90;;;;;;5061557;28;20587;-59
2024/02/08 14:19:37;;;;;;;6.70;3.20;;;16.10;99.90;;;;;;5063319;28;20201;-60
2024/02/08 14:22:07;;;;;;;10.15;2.50;;;16.10;99.90;;;;;;5062144;28;20701;-58
2024/02/08 14:24:38;;;;;;;10.50;2.40;;;16.10;99.90;;;;;;5060214;28;20241;-60
2024/02/08 14:27:06;;;;;;;7.70;2.35;;;16.10;99.90;;;;;;5060749;28;20222;-60
2024/02/08 14:29:36;;;;;;;8.23;2.67;;;16.10;99.90;;;;;;5062805;28;20201;-59
2024/02/08 14:32:04;;;;;;;8.32;2.63;;;16.00;99.90;;;;;;5062817;28;20292;-60
2024/02/08 14:34:35;;;;;;;6.55;2.50;;;16.00;99.90;;;;;;5059467;28;20205;-60
2024/02/08 14:37:05;;;;;;;10.00;2.77;;;15.90;99.90;;;;;;5059949;28;20218;-58
2024/02/08 14:39:33;;;;;;;10.85;2.63;;;15.90;99.90;;;;;;5062866;28;20209;-61
2024/02/08 14:42:01;;;;;;;9.57;2.30;;;15.80;99.90;;;;;;5063000;28;20381;-59
2024/02/08 14:44:40;;;;;;;13.85;2.83;;;15.80;99.90;;;;;;5059640;28;20220;-59
2024/02/08 14:47:07;;;;;;;11.80;2.65;;;15.80;99.90;;;;;;5059931;28;20210;-59